createdAt,value
2022-12-23T00:00:45.407Z,98779.31
2022-12-23T00:03:13.230Z,98771.56
2022-12-23T00:05:40.852Z,98770.72
2022-12-23T00:08:08.640Z,98774.94
2022-12-23T00:10:41.155Z,98779.47
2022-12-23T00:13:27.993Z,98774.31
2022-12-23T00:16:05.420Z,98771.72
2022-12-23T00:18:33.427Z,98756.09
2022-12-23T00:21:08.807Z,98756.22
2022-12-23T00:23:39.655Z,98765.75
2022-12-23T00:26:08.101Z,98757.84
2022-12-23T00:28:35.302Z,98767.34
2022-12-23T00:31:05.559Z,98771.63
2022-12-23T00:33:38.886Z,98769.03
2022-12-23T00:36:32.810Z,98767.44
2022-12-23T00:39:19.560Z,98762.06
2022-12-23T00:42:05.354Z,98758.72
2022-12-23T00:44:32.854Z,98755.41
2022-12-23T00:47:00.103Z,98749.44
2022-12-23T00:49:42.509Z,98738.28
2022-12-23T00:52:13.059Z,98747.91
2022-12-23T00:54:40.766Z,98735.72
2022-12-23T00:57:08.075Z,98728.81
2022-12-23T00:59:35.442Z,98722.84
2022-12-23T01:02:21.955Z,98728.97
2022-12-23T01:05:08.193Z,98735.13
2022-12-23T01:07:35.817Z,98730.81
2022-12-23T01:10:03.381Z,98729.06
2022-12-23T01:12:30.766Z,98726.41
2022-12-23T01:14:58.245Z,98720.34
2022-12-23T01:17:25.692Z,98716.09
2022-12-23T01:19:53.060Z,98717.81
2022-12-23T01:22:20.756Z,98715.22
2022-12-23T01:24:48.200Z,98723.03
2022-12-23T01:27:15.819Z,98729.94
2022-12-23T01:29:43.517Z,98733.34
2022-12-23T01:32:10.967Z,98721.31
2022-12-23T01:34:38.301Z,98739.34
2022-12-23T01:37:06.285Z,98723.69
2022-12-23T01:39:33.680Z,98731.50
2022-12-23T01:42:19.898Z,98739.38
2022-12-23T01:44:51.490Z,98733.19
2022-12-23T01:47:30.907Z,98725.38
2022-12-23T01:50:02.516Z,98711.59
2022-12-23T01:52:34.819Z,98671.31
2022-12-23T01:55:02.377Z,98727.91
2022-12-23T01:57:30.810Z,98731.22
2022-12-23T02:00:16.711Z,98722.53
2022-12-23T02:03:04.189Z,98718.47
2022-12-23T02:05:32.250Z,98720.03
2022-12-23T02:08:18.209Z,98712.28
2022-12-23T02:11:14.419Z,98713.19
2022-12-23T02:14:36.308Z,98706.38
2022-12-23T02:17:20.942Z,98699.41
2022-12-23T02:19:54.510Z,98700.31
2022-12-23T02:22:41.636Z,98672.69
2022-12-23T02:25:21.359Z,98694.97
2022-12-23T02:28:16.012Z,98617.03
2022-12-23T02:30:48.661Z,98654.69
2022-12-23T02:33:35.076Z,98685.63
2022-12-23T02:36:23.074Z,98665.09
2022-12-23T02:38:53.773Z,98629.84
2022-12-23T02:41:30.250Z,98690.81
2022-12-23T02:44:08.638Z,98696.81
2022-12-23T02:46:52.350Z,98696.72
2022-12-23T02:49:33.968Z,98696.56
2022-12-23T02:52:07.047Z,98702.63
2022-12-23T02:54:42.042Z,98696.53
2022-12-23T02:57:13.005Z,98683.50
2022-12-23T02:59:46.350Z,98692.13
2022-12-23T03:02:14.183Z,98689.50
2022-12-23T03:04:42.494Z,98685.22
2022-12-23T03:07:21.656Z,98702.53
2022-12-23T03:10:09.475Z,98703.53
2022-12-23T03:13:04.413Z,98708.56
2022-12-23T03:15:52.357Z,98698.91
2022-12-23T03:18:37.624Z,98691.16
2022-12-23T03:21:29.893Z,98697.34
2022-12-23T03:24:22.134Z,98688.75
2022-12-23T03:27:00.593Z,98704.19
2022-12-23T03:30:02.655Z,98699.00
2022-12-23T03:32:36.851Z,98713.78
2022-12-23T03:35:08.126Z,98704.19
2022-12-23T03:37:40.030Z,98706.78
2022-12-23T03:40:36.096Z,98705.91
2022-12-23T03:43:09.474Z,98713.69
2022-12-23T03:45:43.370Z,98720.59
2022-12-23T03:48:33.990Z,98713.63
2022-12-23T03:51:34.755Z,98709.34
2022-12-23T03:54:14.529Z,98672.50
2022-12-23T03:56:48.069Z,98702.44
2022-12-23T03:59:24.401Z,98711.06
2022-12-23T04:02:01.996Z,98711.94
2022-12-23T04:05:11.381Z,98705.09
2022-12-23T04:08:12.334Z,98687.22
2022-12-23T04:10:40.205Z,98686.22
2022-12-23T04:13:07.939Z,98704.13
2022-12-23T04:15:41.653Z,98701.50
2022-12-23T04:18:10.395Z,98698.00
2022-12-23T04:20:38.109Z,98700.50
2022-12-23T04:23:06.020Z,98697.91
2022-12-23T04:25:33.491Z,98704.09
2022-12-23T04:28:01.962Z,98699.75
2022-12-23T04:30:33.914Z,98694.56
2022-12-23T04:33:02.622Z,98699.75
2022-12-23T04:35:30.709Z,98699.00
2022-12-23T04:37:58.180Z,98697.28
2022-12-23T04:40:25.799Z,98699.91
2022-12-23T04:42:53.301Z,98685.22
2022-12-23T04:45:20.742Z,98657.88
2022-12-23T04:47:48.322Z,98692.88
2022-12-23T04:50:17.223Z,98697.16
2022-12-23T04:52:44.732Z,98696.28
2022-12-23T04:55:12.679Z,98697.13
2022-12-23T04:57:40.379Z,98673.09
2022-12-23T05:00:08.792Z,98680.66
2022-12-23T05:02:36.227Z,98685.03
2022-12-23T05:05:04.591Z,98688.50
2022-12-23T05:07:32.030Z,98682.44
2022-12-23T05:10:02.130Z,98684.09
2022-12-23T05:12:32.292Z,98580.50
2022-12-23T05:14:59.616Z,98651.69
2022-12-23T05:17:26.917Z,98635.34
2022-12-23T05:19:54.629Z,98684.19
2022-12-23T05:22:22.090Z,98678.13
2022-12-23T05:24:49.843Z,98677.22
2022-12-23T05:27:17.631Z,98675.56
2022-12-23T05:29:45.047Z,98669.66
2022-12-23T05:32:12.403Z,98597.81
2022-12-23T05:34:39.935Z,98672.94
2022-12-23T05:37:07.516Z,98680.72
2022-12-23T05:39:34.696Z,98676.31
2022-12-23T05:42:02.317Z,98676.38
2022-12-23T05:44:29.755Z,98674.72
2022-12-23T05:46:57.277Z,98673.78
2022-12-23T05:49:26.013Z,98666.00
2022-12-23T05:51:53.341Z,98666.88
2022-12-23T05:54:20.870Z,98671.16
2022-12-23T05:56:48.460Z,98654.88
2022-12-23T05:59:15.870Z,98656.53
2022-12-23T06:01:43.835Z,98659.16
2022-12-23T06:04:12.215Z,98652.19
2022-12-23T06:06:39.800Z,98649.66
2022-12-23T06:09:07.121Z,98647.94
2022-12-23T06:11:34.803Z,98646.28
2022-12-23T06:14:02.952Z,98647.13
2022-12-23T06:16:30.318Z,98557.94
2022-12-23T06:18:58.035Z,98649.50
2022-12-23T06:21:28.439Z,98647.72
2022-12-23T06:23:55.829Z,98644.94
2022-12-23T06:26:23.610Z,98651.72
2022-12-23T06:28:51.804Z,98657.00
2022-12-23T06:31:19.680Z,98657.81
2022-12-23T06:33:47.376Z,98655.94
2022-12-23T06:36:14.894Z,98653.34
2022-12-23T06:38:42.127Z,98602.75
2022-12-23T06:41:10.141Z,98641.22
2022-12-23T06:43:37.577Z,98650.63
2022-12-23T06:46:05.154Z,98653.22
2022-12-23T06:48:32.761Z,98658.44
2022-12-23T06:51:00.519Z,98660.84
2022-12-23T06:53:27.801Z,98666.47
2022-12-23T06:56:02.215Z,98625.56
2022-12-23T06:58:30.666Z,98656.03
2022-12-23T07:00:58.008Z,98662.59
2022-12-23T07:03:25.720Z,98661.16
2022-12-23T07:05:54.297Z,98657.72
2022-12-23T07:08:21.673Z,98645.69
2022-12-23T07:10:49.968Z,98649.16
2022-12-23T07:13:17.281Z,98651.94
2022-12-23T07:15:44.656Z,98648.59
2022-12-23T07:18:12.382Z,98647.00
2022-12-23T07:20:39.755Z,98647.84
2022-12-23T07:23:06.978Z,98659.78
2022-12-23T07:25:34.465Z,98655.50
2022-12-23T07:28:01.939Z,98639.09
2022-12-23T07:30:29.430Z,98642.63
2022-12-23T07:32:56.891Z,98646.94
2022-12-23T07:35:24.781Z,98645.00
2022-12-23T07:37:56.474Z,98636.28
2022-12-23T07:40:25.097Z,98630.25
2022-12-23T07:42:59.565Z,98629.69
2022-12-23T07:45:28.105Z,98617.78
2022-12-23T07:47:57.033Z,98629.69
2022-12-23T07:50:25.372Z,98617.47
2022-12-23T07:52:53.877Z,98624.38
2022-12-23T07:55:21.557Z,98616.47
2022-12-23T07:57:52.719Z,98611.13
2022-12-23T08:00:20.920Z,98607.28
2022-12-23T08:02:48.631Z,98604.38
2022-12-23T08:05:17.693Z,98602.59
2022-12-23T08:07:50.124Z,98612.31
2022-12-23T08:10:17.960Z,98623.59
2022-12-23T08:12:46.869Z,98613.25
2022-12-23T08:15:14.353Z,98623.78
2022-12-23T08:17:41.846Z,98578.56
2022-12-23T08:20:09.963Z,98610.03
2022-12-23T08:22:37.464Z,98621.38
2022-12-23T08:25:05.166Z,98620.41
2022-12-23T08:27:32.734Z,98616.91
2022-12-23T08:30:00.177Z,98613.56
2022-12-23T08:32:28.322Z,98612.63
2022-12-23T08:34:58.024Z,98612.59
2022-12-23T08:37:25.838Z,98605.44
2022-12-23T08:39:53.357Z,98552.41
2022-12-23T08:42:20.930Z,98608.22
2022-12-23T08:44:48.357Z,98605.69
2022-12-23T08:47:15.737Z,98600.59
2022-12-23T08:49:43.249Z,98595.47
2022-12-23T08:52:10.704Z,98589.38
2022-12-23T08:54:37.941Z,98587.69
2022-12-23T08:57:05.648Z,98583.47
2022-12-23T08:59:33.119Z,98579.00
2022-12-23T09:02:02.262Z,98576.06
2022-12-23T09:04:29.833Z,98575.03
2022-12-23T09:06:57.470Z,98575.00
2022-12-23T09:09:25.002Z,98575.19
2022-12-23T09:11:52.523Z,98580.25
2022-12-23T09:14:19.941Z,98574.88
2022-12-23T09:16:51.946Z,98575.81
2022-12-23T09:19:19.514Z,98560.19
2022-12-23T09:21:46.950Z,98573.72
2022-12-23T09:24:14.375Z,98562.44
2022-12-23T09:26:41.984Z,98559.13
2022-12-23T09:29:09.304Z,98555.78
2022-12-23T09:31:38.054Z,98550.75
2022-12-23T09:34:06.273Z,98532.72
2022-12-23T09:36:34.102Z,98491.88
2022-12-23T09:39:01.593Z,98549.16
2022-12-23T09:41:55.386Z,98545.72
2022-12-23T09:44:22.602Z,98538.53
2022-12-23T09:46:58.725Z,98535.03
2022-12-23T09:49:26.737Z,98538.09
2022-12-23T09:52:00.461Z,98518.75
2022-12-23T09:54:33.684Z,98516.75
2022-12-23T09:57:11.718Z,98517.50
2022-12-23T09:59:41.749Z,98518.31
2022-12-23T10:02:30.811Z,98519.25
2022-12-23T10:05:06.171Z,98506.53
2022-12-23T10:07:39.966Z,98497.66
2022-12-23T10:10:48.878Z,98501.22
2022-12-23T10:13:28.094Z,98447.53
2022-12-23T10:16:03.529Z,98472.22
2022-12-23T10:18:52.647Z,98495.44
2022-12-23T10:21:32.107Z,98486.00
2022-12-23T10:24:11.915Z,98483.19
2022-12-23T10:26:52.059Z,98423.16
2022-12-23T10:29:24.729Z,98464.81
2022-12-23T10:32:12.965Z,98461.22
2022-12-23T10:34:47.816Z,98457.56
2022-12-23T10:37:29.791Z,98444.75
2022-12-23T10:40:20.659Z,98451.41
2022-12-23T10:43:11.659Z,98447.75
2022-12-23T10:45:48.677Z,98455.47
2022-12-23T10:48:51.067Z,98460.94
2022-12-23T10:51:27.552Z,98462.81
2022-12-23T10:54:04.410Z,98471.25
2022-12-23T10:56:32.548Z,98462.50
2022-12-23T10:59:01.524Z,98419.84
2022-12-23T11:01:32.511Z,98446.44
2022-12-23T11:04:03.798Z,98471.03
2022-12-23T11:06:37.513Z,98472.72
2022-12-23T11:09:07.550Z,98466.91
2022-12-23T11:11:55.018Z,98470.50
2022-12-23T11:14:37.712Z,98442.19
2022-12-23T11:17:18.269Z,98442.88
2022-12-23T11:19:45.951Z,98361.75
2022-12-23T11:22:25.929Z,98455.66
2022-12-23T11:24:53.420Z,98449.56
2022-12-23T11:27:20.844Z,98457.31
2022-12-23T11:29:55.061Z,98461.78
2022-12-23T11:32:25.431Z,98461.53
2022-12-23T11:34:54.097Z,98418.72
2022-12-23T11:37:41.855Z,98461.53
2022-12-23T11:40:26.903Z,98464.88
2022-12-23T11:43:04.218Z,98458.91
2022-12-23T11:45:36.690Z,98412.84
2022-12-23T11:48:05.834Z,98463.09
2022-12-23T11:50:39.401Z,98464.16
2022-12-23T11:53:25.218Z,98429.63
2022-12-23T11:56:04.357Z,98469.72
2022-12-23T11:58:41.051Z,98367.28
2022-12-23T12:01:17.202Z,98447.66
2022-12-23T12:04:08.162Z,98461.38
2022-12-23T12:06:41.968Z,98449.13
2022-12-23T12:09:14.340Z,98450.09
2022-12-23T12:11:49.697Z,98448.50
2022-12-23T12:14:31.594Z,98454.50
2022-12-23T12:17:06.390Z,98339.84
2022-12-23T12:19:45.844Z,98443.22
2022-12-23T12:22:31.517Z,98437.06
2022-12-23T12:25:05.725Z,98437.03
2022-12-23T12:27:38.388Z,98425.78
2022-12-23T12:30:13.118Z,98436.31
2022-12-23T12:32:46.821Z,98427.69
2022-12-23T12:35:54.005Z,98432.03
2022-12-23T12:38:26.859Z,98431.09
2022-12-23T12:41:11.805Z,98433.78
2022-12-23T12:43:48.318Z,98434.53
2022-12-23T12:46:45.261Z,98431.00
2022-12-23T12:49:25.235Z,98426.91
2022-12-23T12:52:13.372Z,98425.25
2022-12-23T12:54:56.688Z,98417.25
2022-12-23T12:57:25.941Z,98416.31
2022-12-23T13:00:03.595Z,98400.88
2022-12-23T13:02:56.772Z,98417.97
2022-12-23T13:05:39.431Z,98406.78
2022-12-23T13:08:15.949Z,98406.06
2022-12-23T13:10:50.080Z,98412.97
2022-12-23T13:13:35.719Z,98417.31
2022-12-23T13:16:21.835Z,98406.09
2022-12-23T13:19:00.898Z,98406.09
2022-12-23T13:21:50.933Z,98399.94
2022-12-23T13:24:29.133Z,98401.50
2022-12-23T13:27:21.422Z,98364.91
2022-12-23T13:29:57.543Z,98414.41
2022-12-23T13:32:31.497Z,98412.72
2022-12-23T13:35:23.569Z,98413.56
2022-12-23T13:38:36.257Z,98353.63
2022-12-23T13:41:22.322Z,98402.22
2022-12-23T13:43:54.132Z,98357.91
2022-12-23T13:46:41.601Z,98407.44
2022-12-23T13:49:28.088Z,98403.16
2022-12-23T13:52:07.531Z,98398.66
2022-12-23T13:55:04.727Z,98398.66
2022-12-23T13:57:48.210Z,98388.03
2022-12-23T14:00:18.575Z,98394.59
2022-12-23T14:02:51.727Z,98348.56
2022-12-23T14:06:02.031Z,98389.81
2022-12-23T14:08:41.597Z,98396.88
2022-12-23T14:11:09.340Z,98396.88
2022-12-23T14:13:51.970Z,98393.66
2022-12-23T14:16:43.553Z,98396.06
2022-12-23T14:19:44.173Z,98388.31
2022-12-23T14:22:43.139Z,98391.81
2022-12-23T14:25:28.943Z,98386.44
2022-12-23T14:28:02.480Z,98389.03
2022-12-23T14:30:41.508Z,98376.94
2022-12-23T14:33:32.286Z,98374.56
2022-12-23T14:35:59.760Z,98375.34
2022-12-23T14:38:30.096Z,98369.28
2022-12-23T14:41:18.415Z,98377.97
2022-12-23T14:43:45.736Z,98371.13
2022-12-23T14:46:51.353Z,98315.63
2022-12-23T14:49:41.088Z,98362.53
2022-12-23T14:52:42.617Z,98356.53
2022-12-23T14:55:32.617Z,98348.81
2022-12-23T14:58:13.647Z,98356.47
2022-12-23T15:00:51.194Z,98350.41
2022-12-23T15:03:20.780Z,98356.38
2022-12-23T15:05:48.945Z,98301.56
2022-12-23T15:08:32.813Z,98337.34
2022-12-23T15:11:00.459Z,98329.56
2022-12-23T15:13:30.111Z,98303.38
2022-12-23T15:16:01.804Z,98344.28
2022-12-23T15:18:29.840Z,98308.53
2022-12-23T15:21:10.567Z,98347.81
2022-12-23T15:23:37.944Z,98340.84
2022-12-23T15:26:05.596Z,98349.44
2022-12-23T15:28:41.794Z,98353.03
2022-12-23T15:31:24.003Z,98351.63
2022-12-23T15:34:02.800Z,98352.09
2022-12-23T15:36:36.920Z,98334.03
2022-12-23T15:39:10.647Z,98335.13
2022-12-23T15:41:46.362Z,98345.38
2022-12-23T15:44:20.897Z,98340.34
2022-12-23T15:46:50.963Z,98347.88
2022-12-23T15:49:20.812Z,98341.66
2022-12-23T15:52:07.997Z,98340.81
2022-12-23T15:54:45.595Z,98342.59
2022-12-23T15:57:19.889Z,98304.13
2022-12-23T15:59:47.987Z,98270.38
2022-12-23T16:02:59.604Z,98322.38
2022-12-23T16:05:36.291Z,98319.25
2022-12-23T16:08:29.666Z,98329.56
2022-12-23T16:11:15.173Z,98331.03
2022-12-23T16:13:59.256Z,98333.53
2022-12-23T16:16:43.635Z,98239.63
2022-12-23T16:19:45.020Z,98331.91
2022-12-23T16:22:27.321Z,98307.03
2022-12-23T16:25:00.326Z,98331.81
2022-12-23T16:27:36.633Z,98324.97
2022-12-23T16:30:09.521Z,98328.66
2022-12-23T16:32:58.448Z,98323.16
2022-12-23T16:35:36.728Z,98323.06
2022-12-23T16:38:12.428Z,98317.06
2022-12-23T16:40:40.419Z,98319.59
2022-12-23T16:43:08.331Z,98308.16
2022-12-23T16:45:37.272Z,98316.66
2022-12-23T16:48:39.592Z,98311.16
2022-12-23T16:51:17.090Z,98318.16
2022-12-23T16:53:44.571Z,98310.94
2022-12-23T16:56:13.240Z,98284.81
2022-12-23T16:58:40.610Z,98283.09
2022-12-23T17:01:27.176Z,98314.47
2022-12-23T17:03:56.076Z,98321.41
2022-12-23T17:06:24.314Z,98238.19
2022-12-23T17:08:53.578Z,98325.81
2022-12-23T17:11:36.333Z,98266.81
2022-12-23T17:14:09.105Z,98330.97
2022-12-23T17:16:39.620Z,98321.41
2022-12-23T17:19:07.594Z,98309.31
2022-12-23T17:21:39.937Z,98311.00
2022-12-23T17:24:16.641Z,98319.66
2022-12-23T17:26:44.123Z,98313.63
2022-12-23T17:29:12.824Z,98295.22
2022-12-23T17:31:42.668Z,98219.06
2022-12-23T17:34:16.093Z,98314.53
2022-12-23T17:36:49.525Z,98317.16
2022-12-23T17:39:18.749Z,98317.09
2022-12-23T17:41:46.734Z,98237.09
2022-12-23T17:44:15.956Z,98319.91
2022-12-23T17:46:44.719Z,98326.66
2022-12-23T17:49:12.353Z,98328.34
2022-12-23T17:51:40.704Z,98316.38
2022-12-23T17:54:25.293Z,98317.31
2022-12-23T17:56:53.141Z,98317.16
2022-12-23T17:59:21.343Z,98324.03
2022-12-23T18:01:49.769Z,98326.66
2022-12-23T18:04:17.348Z,98330.13
2022-12-23T18:06:44.970Z,98310.69
2022-12-23T18:09:12.479Z,98332.63
2022-12-23T18:11:44.199Z,98334.41
2022-12-23T18:14:17.483Z,98249.13
2022-12-23T18:16:45.008Z,98290.22
2022-12-23T18:19:18.507Z,98334.41
2022-12-23T18:21:46.522Z,98333.41
2022-12-23T18:24:13.863Z,98291.81
2022-12-23T18:26:41.393Z,98297.88
2022-12-23T18:29:10.082Z,98303.75
2022-12-23T18:31:48.401Z,98323.25
2022-12-23T18:34:18.505Z,98340.22
2022-12-23T18:36:48.619Z,98351.34
2022-12-23T18:39:16.988Z,98335.81
2022-12-23T18:41:44.444Z,98284.59
2022-12-23T18:44:20.707Z,98320.47
2022-12-23T18:46:48.501Z,98338.81
2022-12-23T18:49:16.481Z,98338.53
2022-12-23T18:51:46.127Z,98331.44
2022-12-23T18:54:15.250Z,98276.75
2022-12-23T18:56:42.826Z,98333.22
2022-12-23T18:59:20.088Z,98341.13
2022-12-23T19:01:50.100Z,98300.16
2022-12-23T19:04:17.579Z,98350.56
2022-12-23T19:06:45.261Z,98348.81
2022-12-23T19:09:19.940Z,98356.59
2022-12-23T19:11:49.087Z,98344.41
2022-12-23T19:14:17.002Z,98351.38
2022-12-23T19:16:50.828Z,98351.44
2022-12-23T19:19:19.559Z,98356.56
2022-12-23T19:21:47.032Z,98309.78
2022-12-23T19:24:14.488Z,98351.47
2022-12-23T19:26:42.894Z,98316.59
2022-12-23T19:29:10.579Z,98333.66
2022-12-23T19:31:37.783Z,98355.84
2022-12-23T19:34:09.727Z,98358.38
2022-12-23T19:36:41.854Z,98347.25
2022-12-23T19:39:16.969Z,98362.66
2022-12-23T19:41:45.336Z,98353.13
2022-12-23T19:44:12.821Z,98370.44
2022-12-23T19:46:40.445Z,98373.88
2022-12-23T19:49:08.176Z,98283.47
2022-12-23T19:51:35.565Z,98372.31
2022-12-23T19:54:03.158Z,98372.22
2022-12-23T19:56:32.518Z,98373.97
2022-12-23T19:58:59.879Z,98288.69
2022-12-23T20:01:27.682Z,98382.53
2022-12-23T20:03:56.364Z,98351.22
2022-12-23T20:06:31.372Z,98395.59
2022-12-23T20:09:04.092Z,98392.97
2022-12-23T20:11:42.404Z,98397.16
2022-12-23T20:14:10.767Z,98402.28
2022-12-23T20:16:39.692Z,98399.75
2022-12-23T20:19:07.990Z,98404.88
2022-12-23T20:21:37.574Z,98393.81
2022-12-23T20:24:06.054Z,98401.47
2022-12-23T20:26:34.316Z,98404.94
2022-12-23T20:29:02.198Z,98394.63
2022-12-23T20:31:32.442Z,98418.75
2022-12-23T20:34:02.052Z,98406.59
2022-12-23T20:36:32.448Z,98404.97
2022-12-23T20:39:00.166Z,98405.91
2022-12-23T20:41:29.148Z,98413.75
2022-12-23T20:44:32.623Z,98414.66
2022-12-23T20:46:44.766Z,98354.91
2022-12-23T20:49:12.356Z,98412.28
2022-12-23T20:51:39.695Z,98406.69
2022-12-23T20:54:07.400Z,98416.31
2022-12-23T20:56:35.106Z,98419.78
2022-12-23T20:59:04.023Z,98382.25
2022-12-23T21:01:38.302Z,98421.69
2022-12-23T21:04:08.660Z,98429.47
2022-12-23T21:06:36.577Z,98433.81
2022-12-23T21:09:07.141Z,98437.13
2022-12-23T21:11:38.101Z,98371.31
2022-12-23T21:14:07.190Z,98443.28
2022-12-23T21:16:37.065Z,98436.38
2022-12-23T21:19:09.039Z,98392.81
2022-12-23T21:21:36.355Z,98447.53
2022-12-23T21:24:05.055Z,98456.19
2022-12-23T21:26:34.443Z,98458.00
2022-12-23T21:29:04.065Z,98461.41
2022-12-23T21:31:33.588Z,98467.50
2022-12-23T21:34:02.206Z,98463.19
2022-12-23T21:36:32.725Z,98464.03
2022-12-23T21:39:00.413Z,98474.47
2022-12-23T21:41:31.041Z,98470.97
2022-12-23T21:43:59.885Z,98475.28
2022-12-23T21:46:28.814Z,98469.22
2022-12-23T21:48:57.681Z,98469.16
2022-12-23T21:51:29.403Z,98469.16
2022-12-23T21:54:02.673Z,98460.53
2022-12-23T21:56:31.441Z,98469.22
2022-12-23T21:59:01.036Z,98473.56
2022-12-23T22:01:29.480Z,98477.94
2022-12-23T22:03:58.066Z,98498.81
2022-12-23T22:06:27.835Z,98439.63
2022-12-23T22:08:56.658Z,98478.88
2022-12-23T22:11:26.653Z,98475.50
2022-12-23T22:13:56.358Z,98476.44
2022-12-23T22:16:25.798Z,98476.72
2022-12-23T22:18:54.420Z,98457.06
2022-12-23T22:21:23.799Z,98501.63
2022-12-23T22:23:52.436Z,98496.38
2022-12-23T22:26:25.863Z,98506.72
2022-12-23T22:28:58.358Z,98500.69
2022-12-23T22:31:44.339Z,98498.97
2022-12-23T22:34:17.813Z,98512.91
2022-12-23T22:36:45.959Z,98506.69
2022-12-23T22:39:19.991Z,98512.06
2022-12-23T22:41:52.649Z,98520.63
2022-12-23T22:44:20.792Z,98444.63
2022-12-23T22:46:48.732Z,98515.25
2022-12-23T22:49:17.896Z,98512.72
2022-12-23T22:51:45.564Z,98517.25
2022-12-23T22:54:13.167Z,98522.28
2022-12-23T22:56:40.699Z,98523.03
2022-12-23T22:59:09.808Z,98526.47
2022-12-23T23:01:37.271Z,98482.94
2022-12-23T23:04:05.516Z,98524.69
2022-12-23T23:06:37.886Z,98539.53
2022-12-23T23:09:08.060Z,98536.13
2022-12-23T23:11:35.900Z,98544.91
2022-12-23T23:14:04.053Z,98485.00
2022-12-23T23:16:32.226Z,98549.19
2022-12-23T23:19:00.125Z,98550.88
2022-12-23T23:21:27.788Z,98548.25
2022-12-23T23:23:55.331Z,98501.28
2022-12-23T23:26:26.879Z,98549.19
2022-12-23T23:28:55.478Z,98544.16
2022-12-23T23:34:12.035Z,98539.06
2022-12-23T23:36:40.068Z,98569.13
2022-12-23T23:39:08.062Z,98464.84
2022-12-23T23:41:36.024Z,98551.31
2022-12-23T23:44:03.956Z,98573.44
2022-12-23T23:46:31.907Z,98572.59
2022-12-23T23:48:59.518Z,98569.16
2022-12-23T23:51:27.085Z,98564.97
2022-12-23T23:53:54.381Z,98556.38
2022-12-23T23:56:25.664Z,98567.56
2022-12-23T23:58:54.754Z,98568.50
